sensor_id;sensor_type;location;lat;lon;timestamp;temperature;humidity
27896;DHT22;15241;48.374;10.876;2023-06-10T00:00:12;20.30;99.90
27896;DHT22;15241;48.374;10.876;2023-06-10T00:05:12;20.20;99.90
27896;DHT22;15241;48.374;10.876;2023-06-10T00:10:11;20.20;99.90
27896;DHT22;15241;48.374;10.876;2023-06-10T00:15:13;20.00;99.90
27896;DHT22;15241;48.374;10.876;2023-06-10T00:20:13;19.80;99.90
27896;DHT22;15241;48.374;10.876;2023-06-10T00:25:12;19.80;99.90
27896;DHT22;15241;48.374;10.876;2023-06-10T00:30:13;19.60;99.90
27896;DHT22;15241;48.374;10.876;2023-06-10T00:35:12;19.60;99.90
27896;DHT22;15241;48.374;10.876;2023-06-10T00:40:12;19.50;99.90
27896;DHT22;15241;48.374;10.876;2023-06-10T00:45:13;19.40;99.90
27896;DHT22;15241;48.374;10.876;2023-06-10T00:50:12;19.30;99.90
27896;DHT22;15241;48.374;10.876;2023-06-10T00:55:11;19.40;99.90
27896;DHT22;15241;48.374;10.876;2023-06-10T01:00:13;19.30;99.90
27896;DHT22;15241;48.374;10.876;2023-06-10T01:05:12;19.30;99.90
27896;DHT22;15241;48.374;10.876;2023-06-10T01:10:16;19.30;99.90
27896;DHT22;15241;48.374;10.876;2023-06-10T01:15:13;19.20;99.90
27896;DHT22;15241;48.374;10.876;2023-06-10T01:20:15;19.20;99.90
27896;DHT22;15241;48.374;10.876;2023-06-10T01:25:14;19.20;99.90
27896;DHT22;15241;48.374;10.876;2023-06-10T01:30:16;19.10;99.90
27896;DHT22;15241;48.374;10.876;2023-06-10T01:35:17;19.10;99.90
27896;DHT22;15241;48.374;10.876;2023-06-10T01:40:16;19.10;99.90
27896;DHT22;15241;48.374;10.876;2023-06-10T01:45:15;19.00;99.90
27896;DHT22;15241;48.374;10.876;2023-06-10T01:50:14;19.00;99.90
27896;DHT22;15241;48.374;10.876;2023-06-10T01:55:13;19.00;99.90
27896;DHT22;15241;48.374;10.876;2023-06-10T02:00:15;18.90;99.90
27896;DHT22;15241;48.374;10.876;2023-06-10T02:05:14;18.80;99.90
27896;DHT22;15241;48.374;10.876;2023-06-10T02:10:13;18.90;99.90
27896;DHT22;15241;48.374;10.876;2023-06-10T02:15:12;18.80;99.90
27896;DHT22;15241;48.374;10.876;2023-06-10T02:20:13;18.70;99.90
27896;DHT22;15241;48.374;10.876;2023-06-10T02:25:12;18.60;99.90
27896;DHT22;15241;48.374;10.876;2023-06-10T02:30:13;18.60;99.90
27896;DHT22;15241;48.374;10.876;2023-06-10T02:35:12;18.50;99.90
27896;DHT22;15241;48.374;10.876;2023-06-10T02:40:12;18.50;99.90
27896;DHT22;15241;48.374;10.876;2023-06-10T02:45:13;18.40;99.90
27896;DHT22;15241;48.374;10.876;2023-06-10T02:50:13;18.40;99.90
27896;DHT22;15241;48.374;10.876;2023-06-10T02:55:12;18.40;99.90
27896;DHT22;15241;48.374;10.876;2023-06-10T03:00:13;18.30;99.90
27896;DHT22;15241;48.374;10.876;2023-06-10T03:05:12;18.30;99.90
27896;DHT22;15241;48.374;10.876;2023-06-10T03:10:11;18.30;99.90
27896;DHT22;15241;48.374;10.876;2023-06-10T03:15:11;18.30;99.90
27896;DHT22;15241;48.374;10.876;2023-06-10T03:20:12;18.20;99.90
27896;DHT22;15241;48.374;10.876;2023-06-10T03:25:11;18.10;99.90
27896;DHT22;15241;48.374;10.876;2023-06-10T03:30:12;18.00;99.90
27896;DHT22;15241;48.374;10.876;2023-06-10T03:35:11;18.00;99.90
27896;DHT22;15241;48.374;10.876;2023-06-10T03:40:11;18.10;99.90
27896;DHT22;15241;48.374;10.876;2023-06-10T03:45:11;18.10;99.90
27896;DHT22;15241;48.374;10.876;2023-06-10T03:50:11;18.00;99.90
27896;DHT22;15241;48.374;10.876;2023-06-10T03:55:10;18.00;99.90
27896;DHT22;15241;48.374;10.876;2023-06-10T04:00:11;18.10;99.90
27896;DHT22;15241;48.374;10.876;2023-06-10T04:05:10;18.10;99.90
27896;DHT22;15241;48.374;10.876;2023-06-10T04:10:10;18.20;99.90
27896;DHT22;15241;48.374;10.876;2023-06-10T04:15:10;18.10;99.90
27896;DHT22;15241;48.374;10.876;2023-06-10T04:20:10;18.30;99.90
27896;DHT22;15241;48.374;10.876;2023-06-10T04:30:17;18.40;99.90
27896;DHT22;15241;48.374;10.876;2023-06-10T04:35:16;18.50;99.90
27896;DHT22;15241;48.374;10.876;2023-06-10T04:40:15;18.50;99.90
27896;DHT22;15241;48.374;10.876;2023-06-10T04:45:14;18.60;99.90
27896;DHT22;15241;48.374;10.876;2023-06-10T04:50:13;18.70;99.90
27896;DHT22;15241;48.374;10.876;2023-06-10T04:55:12;18.80;99.90
27896;DHT22;15241;48.374;10.876;2023-06-10T05:00:13;18.90;99.90
27896;DHT22;15241;48.374;10.876;2023-06-10T05:05:12;18.90;99.90
27896;DHT22;15241;48.374;10.876;2023-06-10T05:10:11;19.00;99.90
27896;DHT22;15241;48.374;10.876;2023-06-10T05:15:11;19.10;99.90
27896;DHT22;15241;48.374;10.876;2023-06-10T05:20:12;19.10;99.90
27896;DHT22;15241;48.374;10.876;2023-06-10T05:25:11;19.20;99.90
27896;DHT22;15241;48.374;10.876;2023-06-10T05:30:13;19.30;99.90
27896;DHT22;15241;48.374;10.876;2023-06-10T05:35:12;19.40;99.90
27896;DHT22;15241;48.374;10.876;2023-06-10T05:40:12;19.50;99.90
27896;DHT22;15241;48.374;10.876;2023-06-10T05:45:12;19.60;99.90
27896;DHT22;15241;48.374;10.876;2023-06-10T05:50:11;19.70;99.90
27896;DHT22;15241;48.374;10.876;2023-06-10T05:55:11;19.80;99.90
27896;DHT22;15241;48.374;10.876;2023-06-10T06:00:12;19.90;99.90
27896;DHT22;15241;48.374;10.876;2023-06-10T06:05:11;20.10;99.90
27896;DHT22;15241;48.374;10.876;2023-06-10T06:10:10;20.20;99.90
27896;DHT22;15241;48.374;10.876;2023-06-10T06:15:11;20.30;99.90
27896;DHT22;15241;48.374;10.876;2023-06-10T06:20:11;20.40;99.90
27896;DHT22;15241;48.374;10.876;2023-06-10T06:25:10;20.50;99.90
27896;DHT22;15241;48.374;10.876;2023-06-10T06:30:10;20.60;99.90
27896;DHT22;15241;48.374;10.876;2023-06-10T06:35:10;20.70;99.90
27896;DHT22;15241;48.374;10.876;2023-06-10T06:40:11;20.80;99.90
27896;DHT22;15241;48.374;10.876;2023-06-10T06:45:11;20.90;99.90
27896;DHT22;15241;48.374;10.876;2023-06-10T06:50:10;21.00;99.90
27896;DHT22;15241;48.374;10.876;2023-06-10T06:55:09;21.10;99.90
27896;DHT22;15241;48.374;10.876;2023-06-10T07:00:10;21.20;99.90
27896;DHT22;15241;48.374;10.876;2023-06-10T07:05:09;21.30;99.90
27896;DHT22;15241;48.374;10.876;2023-06-10T07:10:09;21.40;99.90
27896;DHT22;15241;48.374;10.876;2023-06-10T07:15:09;21.50;99.90
27896;DHT22;15241;48.374;10.876;2023-06-10T07:20:10;21.50;99.90
27896;DHT22;15241;48.374;10.876;2023-06-10T07:25:09;21.70;99.90
27896;DHT22;15241;48.374;10.876;2023-06-10T07:30:10;21.80;99.90
27896;DHT22;15241;48.374;10.876;2023-06-10T07:35:09;21.90;99.90
27896;DHT22;15241;48.374;10.876;2023-06-10T07:40:10;22.00;99.90
27896;DHT22;15241;48.374;10.876;2023-06-10T07:45:09;22.20;99.90
27896;DHT22;15241;48.374;10.876;2023-06-10T07:50:10;22.40;99.90
27896;DHT22;15241;48.374;10.876;2023-06-10T07:55:09;22.40;99.90
27896;DHT22;15241;48.374;10.876;2023-06-10T08:00:10;22.60;99.90
27896;DHT22;15241;48.374;10.876;2023-06-10T08:05:09;22.60;99.90
27896;DHT22;15241;48.374;10.876;2023-06-10T08:10:11;22.70;99.90
27896;DHT22;15241;48.374;10.876;2023-06-10T08:15:11;22.90;99.90
27896;DHT22;15241;48.374;10.876;2023-06-10T08:20:10;23.00;99.90
27896;DHT22;15241;48.374;10.876;2023-06-10T08:25:10;23.10;99.90
27896;DHT22;15241;48.374;10.876;2023-06-10T08:30:11;23.20;99.90
27896;DHT22;15241;48.374;10.876;2023-06-10T08:35:10;23.40;99.90
27896;DHT22;15241;48.374;10.876;2023-06-10T08:40:10;23.70;99.90
27896;DHT22;15241;48.374;10.876;2023-06-10T08:45:12;23.90;99.90
27896;DHT22;15241;48.374;10.876;2023-06-10T08:50:11;24.20;99.90
27896;DHT22;15241;48.374;10.876;2023-06-10T08:55:12;24.50;99.90
27896;DHT22;15241;48.374;10.876;2023-06-10T09:00:13;24.70;99.90
27896;DHT22;15241;48.374;10.876;2023-06-10T09:05:14;25.00;99.90
27896;DHT22;15241;48.374;10.876;2023-06-10T09:10:14;25.20;99.90
27896;DHT22;15241;48.374;10.876;2023-06-10T09:15:12;25.50;99.90
27896;DHT22;15241;48.374;10.876;2023-06-10T09:20:12;25.70;99.90
27896;DHT22;15241;48.374;10.876;2023-06-10T09:25:12;26.00;99.90
27896;DHT22;15241;48.374;10.876;2023-06-10T09:30:20;25.90;99.90
27896;DHT22;15241;48.374;10.876;2023-06-10T09:35:19;25.80;99.90
27896;DHT22;15241;48.374;10.876;2023-06-10T09:40:18;26.10;99.90
27896;DHT22;15241;48.374;10.876;2023-06-10T09:45:17;26.20;99.90
27896;DHT22;15241;48.374;10.876;2023-06-10T09:50:16;26.20;99.90
27896;DHT22;15241;48.374;10.876;2023-06-10T09:55:16;26.30;99.90
27896;DHT22;15241;48.374;10.876;2023-06-10T10:00:16;26.50;99.90
27896;DHT22;15241;48.374;10.876;2023-06-10T10:05:16;26.90;99.90
27896;DHT22;15241;48.374;10.876;2023-06-10T10:10:17;27.30;99.90
27896;DHT22;15241;48.374;10.876;2023-06-10T10:15:17;27.50;98.20
27896;DHT22;15241;48.374;10.876;2023-06-10T10:20:19;28.10;98.40
27896;DHT22;15241;48.374;10.876;2023-06-10T10:25:21;28.30;98.40
27896;DHT22;15241;48.374;10.876;2023-06-10T10:30:21;28.20;97.20
27896;DHT22;15241;48.374;10.876;2023-06-10T10:35:22;28.50;98.00
27896;DHT22;15241;48.374;10.876;2023-06-10T10:40:22;29.00;97.60
27896;DHT22;15241;48.374;10.876;2023-06-10T10:45:23;29.50;97.50
27896;DHT22;15241;48.374;10.876;2023-06-10T10:50:21;29.60;96.30
27896;DHT22;15241;48.374;10.876;2023-06-10T10:55:21;29.50;95.90
27896;DHT22;15241;48.374;10.876;2023-06-10T11:00:29;29.50;95.60
27896;DHT22;15241;48.374;10.876;2023-06-10T11:05:38;29.40;96.00
27896;DHT22;15241;48.374;10.876;2023-06-10T11:10:39;29.30;95.50
27896;DHT22;15241;48.374;10.876;2023-06-10T11:15:43;29.10;94.70
27896;DHT22;15241;48.374;10.876;2023-06-10T11:20:45;29.50;94.80
27896;DHT22;15241;48.374;10.876;2023-06-10T11:25:47;29.60;94.50
27896;DHT22;15241;48.374;10.876;2023-06-10T11:30:46;29.60;94.30
27896;DHT22;15241;48.374;10.876;2023-06-10T11:35:47;29.70;93.80
27896;DHT22;15241;48.374;10.876;2023-06-10T11:40:48;29.90;94.20
27896;DHT22;15241;48.374;10.876;2023-06-10T11:45:47;30.40;94.40
27896;DHT22;15241;48.374;10.876;2023-06-10T11:50:48;30.40;93.20
27896;DHT22;15241;48.374;10.876;2023-06-10T11:55:48;30.60;92.60
27896;DHT22;15241;48.374;10.876;2023-06-10T12:00:48;30.50;92.20
27896;DHT22;15241;48.374;10.876;2023-06-10T12:05:58;30.40;92.60
27896;DHT22;15241;48.374;10.876;2023-06-10T12:10:58;29.70;92.30
27896;DHT22;15241;48.374;10.876;2023-06-10T12:16:09;29.50;93.20
27896;DHT22;15241;48.374;10.876;2023-06-10T12:21:20;29.50;93.70
27896;DHT22;15241;48.374;10.876;2023-06-10T12:26:20;29.70;93.90
27896;DHT22;15241;48.374;10.876;2023-06-10T12:31:20;30.20;94.30
27896;DHT22;15241;48.374;10.876;2023-06-10T12:36:19;30.60;93.50
27896;DHT22;15241;48.374;10.876;2023-06-10T12:41:19;31.10;93.60
27896;DHT22;15241;48.374;10.876;2023-06-10T12:46:18;31.40;91.30
27896;DHT22;15241;48.374;10.876;2023-06-10T12:51:17;31.90;90.90
27896;DHT22;15241;48.374;10.876;2023-06-10T12:56:16;32.10;89.90
27896;DHT22;15241;48.374;10.876;2023-06-10T13:01:15;32.80;90.70
27896;DHT22;15241;48.374;10.876;2023-06-10T13:06:14;33.10;91.10
27896;DHT22;15241;48.374;10.876;2023-06-10T13:11:13;32.70;89.50
27896;DHT22;15241;48.374;10.876;2023-06-10T13:16:12;33.10;89.00
27896;DHT22;15241;48.374;10.876;2023-06-10T13:21:11;33.00;86.90
27896;DHT22;15241;48.374;10.876;2023-06-10T13:26:10;33.40;89.70
27896;DHT22;15241;48.374;10.876;2023-06-10T13:31:09;33.40;86.80
27896;DHT22;15241;48.374;10.876;2023-06-10T13:36:08;33.60;86.00
27896;DHT22;15241;48.374;10.876;2023-06-10T13:41:07;33.40;83.40
27896;DHT22;15241;48.374;10.876;2023-06-10T13:46:05;33.30;84.30
27896;DHT22;15241;48.374;10.876;2023-06-10T13:56:12;33.20;82.60
27896;DHT22;15241;48.374;10.876;2023-06-10T14:01:11;33.60;84.40
27896;DHT22;15241;48.374;10.876;2023-06-10T14:06:10;33.70;83.20
27896;DHT22;15241;48.374;10.876;2023-06-10T14:11:09;33.80;80.90
27896;DHT22;15241;48.374;10.876;2023-06-10T14:16:07;33.60;78.90
27896;DHT22;15241;48.374;10.876;2023-06-10T14:21:06;33.50;79.40
27896;DHT22;15241;48.374;10.876;2023-06-10T14:26:05;33.50;79.00
27896;DHT22;15241;48.374;10.876;2023-06-10T14:31:04;33.50;79.10
27896;DHT22;15241;48.374;10.876;2023-06-10T14:36:04;33.30;78.30
27896;DHT22;15241;48.374;10.876;2023-06-10T14:41:02;33.40;79.50
27896;DHT22;15241;48.374;10.876;2023-06-10T14:46:01;33.40;79.30
27896;DHT22;15241;48.374;10.876;2023-06-10T14:56:08;33.20;77.90
27896;DHT22;15241;48.374;10.876;2023-06-10T15:01:07;33.30;78.30
27896;DHT22;15241;48.374;10.876;2023-06-10T15:06:06;33.50;79.20
27896;DHT22;15241;48.374;10.876;2023-06-10T15:11:05;33.30;81.20
27896;DHT22;15241;48.374;10.876;2023-06-10T15:16:04;33.40;80.40
27896;DHT22;15241;48.374;10.876;2023-06-10T15:21:03;33.30;79.50
27896;DHT22;15241;48.374;10.876;2023-06-10T15:26:02;33.30;77.40
27896;DHT22;15241;48.374;10.876;2023-06-10T15:31:01;32.80;78.80
27896;DHT22;15241;48.374;10.876;2023-06-10T15:36:00;31.90;80.20
27896;DHT22;15241;48.374;10.876;2023-06-10T15:40:59;31.60;81.20
27896;DHT22;15241;48.374;10.876;2023-06-10T15:45:58;31.10;80.40
27896;DHT22;15241;48.374;10.876;2023-06-10T15:50:57;30.70;80.20
27896;DHT22;15241;48.374;10.876;2023-06-10T15:55:56;30.30;80.20
27896;DHT22;15241;48.374;10.876;2023-06-10T16:00:54;30.00;80.50
27896;DHT22;15241;48.374;10.876;2023-06-10T16:05:53;29.80;82.10
27896;DHT22;15241;48.374;10.876;2023-06-10T16:10:52;29.80;83.50
27896;DHT22;15241;48.374;10.876;2023-06-10T16:15:51;29.60;82.50
27896;DHT22;15241;48.374;10.876;2023-06-10T16:20:50;29.90;84.40
27896;DHT22;15241;48.374;10.876;2023-06-10T16:25:49;29.70;83.30
27896;DHT22;15241;48.374;10.876;2023-06-10T16:30:48;29.70;85.20
27896;DHT22;15241;48.374;10.876;2023-06-10T16:35:47;29.80;86.90
27896;DHT22;15241;48.374;10.876;2023-06-10T16:40:46;30.00;86.50
27896;DHT22;15241;48.374;10.876;2023-06-10T16:45:45;29.70;86.00
27896;DHT22;15241;48.374;10.876;2023-06-10T16:50:44;29.60;86.90
27896;DHT22;15241;48.374;10.876;2023-06-10T16:55:43;29.60;87.10
27896;DHT22;15241;48.374;10.876;2023-06-10T17:00:42;29.60;86.80
27896;DHT22;15241;48.374;10.876;2023-06-10T17:05:41;29.50;86.50
27896;DHT22;15241;48.374;10.876;2023-06-10T17:10:40;29.30;86.40
27896;DHT22;15241;48.374;10.876;2023-06-10T17:15:39;29.20;85.00
27896;DHT22;15241;48.374;10.876;2023-06-10T17:20:37;29.20;86.00
27896;DHT22;15241;48.374;10.876;2023-06-10T17:25:36;29.00;87.80
27896;DHT22;15241;48.374;10.876;2023-06-10T17:30:35;29.00;88.10
27896;DHT22;15241;48.374;10.876;2023-06-10T17:35:34;28.80;88.90
27896;DHT22;15241;48.374;10.876;2023-06-10T17:40:33;28.50;90.00
27896;DHT22;15241;48.374;10.876;2023-06-10T17:45:32;28.20;90.20
27896;DHT22;15241;48.374;10.876;2023-06-10T17:50:31;27.90;90.00
27896;DHT22;15241;48.374;10.876;2023-06-10T17:55:31;27.70;89.90
27896;DHT22;15241;48.374;10.876;2023-06-10T18:00:30;27.40;90.40
27896;DHT22;15241;48.374;10.876;2023-06-10T18:05:29;27.40;91.10
27896;DHT22;15241;48.374;10.876;2023-06-10T18:10:28;27.30;91.90
27896;DHT22;15241;48.374;10.876;2023-06-10T18:15:27;26.80;92.20
27896;DHT22;15241;48.374;10.876;2023-06-10T18:20:26;26.60;92.30
27896;DHT22;15241;48.374;10.876;2023-06-10T18:25:25;26.50;92.70
27896;DHT22;15241;48.374;10.876;2023-06-10T18:30:24;26.30;93.20
27896;DHT22;15241;48.374;10.876;2023-06-10T18:35:23;26.10;94.00
27896;DHT22;15241;48.374;10.876;2023-06-10T18:45:30;25.60;94.60
27896;DHT22;15241;48.374;10.876;2023-06-10T18:50:29;25.50;95.20
27896;DHT22;15241;48.374;10.876;2023-06-10T18:55:28;25.30;95.40
27896;DHT22;15241;48.374;10.876;2023-06-10T19:00:27;25.10;95.50
27896;DHT22;15241;48.374;10.876;2023-06-10T19:05:26;24.90;95.90
27896;DHT22;15241;48.374;10.876;2023-06-10T19:10:25;24.70;96.40
27896;DHT22;15241;48.374;10.876;2023-06-10T19:15:24;24.60;96.80
27896;DHT22;15241;48.374;10.876;2023-06-10T19:20:23;24.50;97.00
27896;DHT22;15241;48.374;10.876;2023-06-10T19:25:22;24.40;97.50
27896;DHT22;15241;48.374;10.876;2023-06-10T19:30:21;24.30;97.60
27896;DHT22;15241;48.374;10.876;2023-06-10T19:35:20;24.20;98.10
27896;DHT22;15241;48.374;10.876;2023-06-10T19:40:19;24.10;98.20
27896;DHT22;15241;48.374;10.876;2023-06-10T19:45:18;24.00;98.60
27896;DHT22;15241;48.374;10.876;2023-06-10T19:50:17;24.00;98.80
27896;DHT22;15241;48.374;10.876;2023-06-10T19:55:16;23.90;99.00
27896;DHT22;15241;48.374;10.876;2023-06-10T20:00:16;23.70;99.30
27896;DHT22;15241;48.374;10.876;2023-06-10T20:05:15;23.60;99.50
27896;DHT22;15241;48.374;10.876;2023-06-10T20:10:14;23.50;99.60
27896;DHT22;15241;48.374;10.876;2023-06-10T20:15:12;23.40;99.80
27896;DHT22;15241;48.374;10.876;2023-06-10T20:20:13;23.30;99.60
27896;DHT22;15241;48.374;10.876;2023-06-10T20:25:12;23.20;99.80
27896;DHT22;15241;48.374;10.876;2023-06-10T20:30:12;23.10;99.90
27896;DHT22;15241;48.374;10.876;2023-06-10T20:35:15;23.00;99.90
27896;DHT22;15241;48.374;10.876;2023-06-10T20:40:14;22.90;99.90
27896;DHT22;15241;48.374;10.876;2023-06-10T20:45:13;22.70;99.90
27896;DHT22;15241;48.374;10.876;2023-06-10T20:50:12;22.70;99.90
27896;DHT22;15241;48.374;10.876;2023-06-10T20:55:11;22.50;99.90
27896;DHT22;15241;48.374;10.876;2023-06-10T21:00:12;22.40;99.90
27896;DHT22;15241;48.374;10.876;2023-06-10T21:05:11;22.30;99.90
27896;DHT22;15241;48.374;10.876;2023-06-10T21:10:10;22.20;99.90
27896;DHT22;15241;48.374;10.876;2023-06-10T21:15:10;22.10;99.90
27896;DHT22;15241;48.374;10.876;2023-06-10T21:20:11;22.00;99.90
27896;DHT22;15241;48.374;10.876;2023-06-10T21:30:16;21.90;99.90
27896;DHT22;15241;48.374;10.876;2023-06-10T21:35:15;21.80;99.90
27896;DHT22;15241;48.374;10.876;2023-06-10T21:40:15;21.70;99.90
27896;DHT22;15241;48.374;10.876;2023-06-10T21:45:14;21.60;99.90
27896;DHT22;15241;48.374;10.876;2023-06-10T21:50:13;21.50;99.90
27896;DHT22;15241;48.374;10.876;2023-06-10T21:55:12;21.40;99.90
27896;DHT22;15241;48.374;10.876;2023-06-10T22:00:14;21.40;99.90
27896;DHT22;15241;48.374;10.876;2023-06-10T22:05:13;21.20;99.90
27896;DHT22;15241;48.374;10.876;2023-06-10T22:10:12;21.20;99.90
27896;DHT22;15241;48.374;10.876;2023-06-10T22:15:12;21.10;99.90
27896;DHT22;15241;48.374;10.876;2023-06-10T22:20:12;21.10;99.90
27896;DHT22;15241;48.374;10.876;2023-06-10T22:25:11;21.00;99.90
27896;DHT22;15241;48.374;10.876;2023-06-10T22:30:12;21.00;99.90
27896;DHT22;15241;48.374;10.876;2023-06-10T22:35:11;20.90;99.90
27896;DHT22;15241;48.374;10.876;2023-06-10T22:40:11;20.90;99.90
27896;DHT22;15241;48.374;10.876;2023-06-10T22:45:11;20.80;99.90
27896;DHT22;15241;48.374;10.876;2023-06-10T22:50:10;20.80;99.90
27896;DHT22;15241;48.374;10.876;2023-06-10T22:55:09;20.70;99.90
27896;DHT22;15241;48.374;10.876;2023-06-10T23:00:11;20.60;99.90
27896;DHT22;15241;48.374;10.876;2023-06-10T23:05:11;20.50;99.90
27896;DHT22;15241;48.374;10.876;2023-06-10T23:10:10;20.50;99.90
27896;DHT22;15241;48.374;10.876;2023-06-10T23:15:10;20.40;99.90
27896;DHT22;15241;48.374;10.876;2023-06-10T23:20:11;20.40;99.90
27896;DHT22;15241;48.374;10.876;2023-06-10T23:25:10;20.30;99.90
27896;DHT22;15241;48.374;10.876;2023-06-10T23:30:11;20.20;99.90
27896;DHT22;15241;48.374;10.876;2023-06-10T23:35:11;20.20;99.90
27896;DHT22;15241;48.374;10.876;2023-06-10T23:40:12;20.20;99.90
27896;DHT22;15241;48.374;10.876;2023-06-10T23:45:12;20.10;99.90
27896;DHT22;15241;48.374;10.876;2023-06-10T23:50:11;20.10;99.90
27896;DHT22;15241;48.374;10.876;2023-06-10T23:55:10;20.10;99.90
